Time;durP1;ratioP1;P1;durP2;ratioP2;P2;SDS_P1;SDS_P2;PMS_P1;PMS_P2;Temp;Humidity;BMP_temperature;BMP_pressure;BME280_temperature;BME280_humidity;BME280_pressure;Samples;Min_cycle;Max_cycle;Signal;HPM_P1;HPM_P2
2021/11/03 00:00:47;;;;;;;7.93;2.17;;;;;;;4.09;91.85;94161.66;5093739;28;20180;-81
2021/11/03 00:03:13;;;;;;;2.80;2.40;;;;;;;4.15;91.44;94165.41;5068849;28;20658;-82
2021/11/03 00:05:44;;;;;;;2.97;1.90;;;;;;;4.17;91.51;94166.91;5077885;28;20275;-82
2021/11/03 00:08:11;;;;;;;3.63;2.13;;;;;;;4.10;91.66;94165.84;5078961;28;20600;-82
2021/11/03 00:10:37;;;;;;;3.83;2.20;;;;;;;4.14;91.13;94172.28;5095089;28;20200;-82
2021/11/03 00:13:02;;;;;;;4.17;2.27;;;;;;;4.13;91.56;94170.69;5067658;28;20208;-82
2021/11/03 00:15:27;;;;;;;2.53;2.20;;;;;;;4.14;91.37;94174.06;5086338;28;20652;-82
2021/11/03 00:17:53;;;;;;;2.50;1.80;;;;;;;4.17;91.00;94172.03;5088714;28;20188;-82
2021/11/03 00:20:18;;;;;;;2.23;1.87;;;;;;;4.22;91.17;94167.25;5094818;28;20196;-82
2021/11/03 00:22:43;;;;;;;2.90;2.20;;;;;;;4.23;90.95;94160.34;5090639;28;20188;-82
2021/11/03 00:25:09;;;;;;;2.47;1.80;;;;;;;4.26;90.80;94163.47;5067618;28;20193;-82
2021/11/03 00:27:35;;;;;;;3.13;1.93;;;;;;;4.19;90.59;94152.13;5071929;28;20177;-82
2021/11/03 00:30:00;;;;;;;5.97;2.60;;;;;;;4.23;90.68;94150.88;5071541;28;20687;-82
2021/11/03 00:32:25;;;;;;;4.37;2.07;;;;;;;4.26;90.63;94137.78;5055398;28;20204;-82
2021/11/03 00:34:51;;;;;;;2.20;2.00;;;;;;;4.23;90.44;94138.03;5080629;28;20189;-82
2021/11/03 00:37:16;;;;;;;2.73;1.83;;;;;;;4.22;90.76;94127.91;5072647;28;20280;-82
2021/11/03 00:39:42;;;;;;;3.10;2.00;;;;;;;4.31;90.31;94126.25;5093356;28;20270;-82
2021/11/03 00:42:07;;;;;;;3.47;1.93;;;;;;;4.25;89.73;94120.75;5093835;28;20259;-82
2021/11/03 00:44:33;;;;;;;2.63;2.20;;;;;;;4.26;90.18;94124.91;5074760;28;20642;-82
2021/11/03 00:46:58;;;;;;;2.73;2.00;;;;;;;4.34;89.87;94118.25;5085230;28;20216;-82
2021/11/03 00:49:24;;;;;;;2.90;2.60;;;;;;;4.33;89.79;94122.59;5075280;28;20211;-82
2021/11/03 00:51:49;;;;;;;2.70;2.10;;;;;;;4.34;89.40;94111.34;5092567;28;20621;-82
2021/11/03 00:54:14;;;;;;;5.90;2.47;;;;;;;4.33;89.30;94106.34;5074330;28;20187;-81
2021/11/03 00:56:40;;;;;;;1.97;1.60;;;;;;;4.36;89.40;94096.59;5062948;28;20263;-82
2021/11/03 00:59:05;;;;;;;1.83;1.67;;;;;;;4.33;89.85;94102.03;5055679;28;20721;-82
2021/11/03 01:01:31;;;;;;;2.27;1.80;;;;;;;4.30;89.87;94091.22;5073042;28;20221;-81
2021/11/03 01:03:57;;;;;;;3.23;1.93;;;;;;;4.37;89.87;94092.25;5076141;28;20593;-82
2021/11/03 01:06:22;;;;;;;3.33;2.27;;;;;;;4.32;90.17;94092.69;5076852;28;20200;-82
2021/11/03 01:08:47;;;;;;;2.67;2.13;;;;;;;4.28;90.24;94088.00;5076762;28;20197;-82
2021/11/03 01:11:13;;;;;;;2.20;1.90;;;;;;;4.31;90.77;94088.50;5076495;28;20519;-82
2021/11/03 01:13:38;;;;;;;3.87;2.10;;;;;;;4.22;90.68;94089.38;5074275;28;20193;-82
2021/11/03 01:16:04;;;;;;;3.70;2.00;;;;;;;4.23;90.79;94086.66;5061592;28;20188;-82
2021/11/03 01:18:31;;;;;;;3.57;2.13;;;;;;;4.25;90.54;94089.91;5084137;28;20275;-82
2021/11/03 01:20:57;;;;;;;2.93;2.07;;;;;;;4.26;90.69;94081.25;5058648;28;20207;-82
2021/11/03 01:23:23;;;;;;;3.50;2.63;;;;;;;4.23;91.31;94089.22;5058334;28;20184;-82
2021/11/03 01:25:49;;;;;;;4.77;2.40;;;;;;;4.22;91.26;94087.59;5057650;28;20652;-82
2021/11/03 01:28:16;;;;;;;3.47;2.53;;;;;;;4.22;91.53;94097.06;5066150;28;20193;-81
2021/11/03 01:30:41;;;;;;;4.83;2.50;;;;;;;4.20;91.35;94097.22;5075116;28;20197;-82
2021/11/03 01:33:06;;;;;;;4.47;2.63;;;;;;;4.17;91.16;94094.16;5075104;28;20208;-82
2021/11/03 01:35:32;;;;;;;2.83;2.63;;;;;;;4.24;90.94;94087.44;5058125;28;20240;-82
2021/11/03 01:37:58;;;;;;;4.90;2.67;;;;;;;4.17;90.96;94076.97;5062110;28;20185;-82
2021/11/03 01:40:25;;;;;;;4.93;2.70;;;;;;;4.18;90.87;94082.91;5066873;28;20227;-82
2021/11/03 01:42:51;;;;;;;3.07;2.77;;;;;;;4.16;90.71;94088.19;5074394;28;20538;-82
2021/11/03 01:45:19;;;;;;;4.77;3.03;;;;;;;4.12;90.93;94079.16;5074231;28;20181;-81
2021/11/03 01:47:52;;;;;;;3.17;2.77;;;;;;;4.01;92.26;94081.94;5075485;28;20188;-82
2021/11/03 01:50:23;;;;;;;4.77;2.93;;;;;;;4.09;92.20;94088.91;5078783;28;20775;-82
2021/11/03 01:52:54;;;;;;;4.13;3.20;;;;;;;4.10;91.80;94090.53;5078214;28;20652;-82
2021/11/03 01:55:19;;;;;;;4.40;3.43;;;;;;;3.96;92.35;94087.47;5093797;28;20180;-81
2021/11/03 01:57:50;;;;;;;4.33;3.33;;;;;;;4.05;92.65;94083.25;5077467;28;20192;-81
2021/11/03 02:00:20;;;;;;;4.33;3.50;;;;;;;4.00;92.57;94085.44;5081931;28;20212;-81
2021/11/03 02:02:46;;;;;;;5.33;3.50;;;;;;;3.97;92.91;94068.53;5073828;28;20817;-81
2021/11/03 02:05:13;;;;;;;4.13;3.50;;;;;;;3.98;92.71;94077.09;5077645;28;20188;-81
2021/11/03 02:07:39;;;;;;;3.37;3.07;;;;;;;4.01;93.05;94065.69;5069457;28;20200;-82
2021/11/03 02:10:05;;;;;;;3.60;2.87;;;;;;;3.97;92.85;94060.84;5077424;28;20206;-82
2021/11/03 02:12:31;;;;;;;3.57;3.13;;;;;;;3.95;93.48;94049.09;5078097;28;20258;-82
2021/11/03 02:14:56;;;;;;;5.20;2.67;;;;;;;3.97;93.39;94042.84;5071702;28;20193;-82
2021/11/03 02:17:23;;;;;;;3.33;2.70;;;;;;;3.97;93.35;94039.47;5056977;28;20260;-82
2021/11/03 02:19:50;;;;;;;3.27;2.93;;;;;;;3.87;93.75;94031.84;5074490;28;20207;-82
2021/11/03 02:22:24;;;;;;;4.50;2.53;;;;;;;3.88;93.67;94033.44;5071441;28;20244;-82
2021/11/03 02:24:55;;;;;;;4.23;3.10;;;;;;;3.93;93.78;94038.16;5092847;28;20755;-81
2021/11/03 02:27:21;;;;;;;3.63;2.77;;;;;;;4.00;93.52;94028.13;5080003;28;20201;-82
2021/11/03 02:29:47;;;;;;;3.63;2.60;;;;;;;4.00;93.48;94034.06;5056071;28;20197;-82
2021/11/03 02:32:22;;;;;;;2.73;2.50;;;;;;;3.97;93.83;94024.88;5080083;28;20247;-82
2021/11/03 02:34:48;;;;;;;5.10;3.07;;;;;;;3.94;94.31;94026.94;5062130;28;20182;-82
2021/11/03 02:37:29;;;;;;;3.90;2.70;;;;;;;3.96;93.82;94033.53;5073246;28;20628;-82
2021/11/03 02:39:54;;;;;;;4.17;2.70;;;;;;;3.98;94.16;94038.56;5074440;28;20211;-82
2021/11/03 02:42:19;;;;;;;4.50;2.87;;;;;;;4.06;93.67;94038.63;5084959;28;20180;-82
2021/11/03 02:44:47;;;;;;;5.77;2.67;;;;;;;4.05;93.65;94031.88;5069704;28;20250;-81
2021/11/03 02:47:12;;;;;;;3.53;2.70;;;;;;;3.98;93.68;94034.22;5076894;28;20182;-82
2021/11/03 02:49:39;;;;;;;2.83;2.63;;;;;;;4.01;94.07;94027.97;5076321;28;20192;-82
2021/11/03 02:52:12;;;;;;;5.37;2.80;;;;;;;3.93;93.87;94035.59;5073383;28;20223;-82
2021/11/03 02:54:38;;;;;;;6.30;2.80;;;;;;;3.99;94.10;94017.06;5085112;28;20554;-82
2021/11/03 02:57:03;;;;;;;4.00;2.80;;;;;;;3.92;94.20;94023.72;5094875;28;20206;-82
2021/11/03 02:59:28;;;;;;;4.20;3.17;;;;;;;3.88;94.40;94012.91;5093402;28;20199;-82
2021/11/03 03:01:59;;;;;;;4.00;3.20;;;;;;;3.90;94.65;94018.72;5076475;28;20168;-82
2021/11/03 03:04:28;;;;;;;4.60;2.93;;;;;;;3.94;94.81;94016.66;5079929;28;20196;-81
2021/11/03 03:06:54;;;;;;;4.50;3.20;;;;;;;3.94;94.56;94004.63;5072996;28;20172;-82
2021/11/03 03:09:20;;;;;;;4.07;2.97;;;;;;;3.97;94.68;93996.63;5072716;28;20679;-82
2021/11/03 03:11:48;;;;;;;3.30;3.00;;;;;;;3.93;94.49;93991.94;5055991;28;20216;-81
2021/11/03 03:14:15;;;;;;;5.13;3.43;;;;;;;3.91;94.82;93999.78;5063746;28;20209;-82
2021/11/03 03:16:41;;;;;;;4.27;3.20;;;;;;;3.86;94.83;93996.84;5072020;28;20181;-81
2021/11/03 03:19:06;;;;;;;4.53;3.00;;;;;;;3.94;94.76;94001.25;5055623;28;20620;-82
2021/11/03 03:21:32;;;;;;;3.57;3.23;;;;;;;3.98;94.49;94000.03;5072475;28;20176;-82
2021/11/03 03:23:59;;;;;;;4.77;3.10;;;;;;;3.97;94.70;93993.25;5057027;28;20220;-82
2021/11/03 03:26:25;;;;;;;3.33;2.97;;;;;;;3.91;94.81;93994.66;5081775;28;20207;-81
2021/11/03 03:28:51;;;;;;;3.70;3.27;;;;;;;3.98;95.28;94000.03;5055498;28;20224;-81
2021/11/03 03:31:17;;;;;;;3.23;2.90;;;;;;;4.06;94.63;93986.44;5072513;28;20184;-81
2021/11/03 03:33:43;;;;;;;4.20;3.20;;;;;;;3.94;95.07;93986.66;5072789;28;20258;-81
2021/11/03 03:36:09;;;;;;;4.20;3.20;;;;;;;4.02;94.64;93988.50;5064443;28;20242;-81
2021/11/03 03:38:35;;;;;;;5.53;3.10;;;;;;;3.98;95.41;93992.31;5066687;28;20585;-81
2021/11/03 03:41:00;;;;;;;4.70;3.10;;;;;;;4.01;95.39;93991.22;5074621;28;20172;-81
2021/11/03 03:43:26;;;;;;;3.30;3.00;;;;;;;4.04;94.99;93993.47;5073312;28;20229;-81
2021/11/03 03:45:51;;;;;;;6.50;3.60;;;;;;;4.04;95.28;93988.34;5088535;28;20263;-82
2021/11/03 03:48:17;;;;;;;3.97;3.07;;;;;;;4.01;94.67;93992.03;5069182;28;20193;-82
2021/11/03 03:50:42;;;;;;;3.43;3.03;;;;;;;4.03;95.26;93992.69;5083702;28;20189;-81
2021/11/03 03:53:10;;;;;;;4.07;3.67;;;;;;;3.95;95.02;93990.03;5075032;28;20196;-81
2021/11/03 03:55:35;;;;;;;3.83;3.40;;;;;;;3.95;95.37;93984.88;5073106;28;20191;-81
2021/11/03 03:58:01;;;;;;;5.33;3.43;;;;;;;3.92;95.63;93990.31;5082025;28;20636;-81
2021/11/03 04:00:26;;;;;;;4.13;3.13;;;;;;;3.94;95.98;93985.84;5073685;28;20200;-81
2021/11/03 04:02:52;;;;;;;5.73;3.63;;;;;;;4.02;95.56;93985.94;5074760;28;20178;-81
2021/11/03 04:05:19;;;;;;;4.47;3.27;;;;;;;4.01;95.83;93979.19;5090612;28;20255;-82
2021/11/03 04:07:44;;;;;;;3.33;3.03;;;;;;;4.04;95.66;93984.00;5084007;28;20173;-81
2021/11/03 04:10:11;;;;;;;3.87;3.27;;;;;;;4.07;95.52;93983.75;5081741;28;20572;-81
2021/11/03 04:12:36;;;;;;;3.30;3.00;;;;;;;4.07;95.58;93975.22;5091704;28;20245;-81
2021/11/03 04:15:02;;;;;;;3.40;3.10;;;;;;;4.07;95.36;93973.47;5091270;28;20606;-81
2021/11/03 04:17:27;;;;;;;4.43;3.47;;;;;;;4.03;95.41;93982.41;5070539;28;20175;-82
2021/11/03 04:19:52;;;;;;;3.63;3.20;;;;;;;4.04;95.71;93978.88;5079812;28;20214;-81
2021/11/03 04:22:17;;;;;;;5.37;3.27;;;;;;;4.04;95.52;93980.63;5071490;28;20172;-82
2021/11/03 04:24:43;;;;;;;5.87;3.17;;;;;;;4.01;95.71;93974.03;5071253;28;20200;-82
2021/11/03 04:27:08;;;;;;;4.27;3.87;;;;;;;3.99;96.15;93970.81;5071478;28;20176;-81
2021/11/03 04:29:34;;;;;;;4.23;3.83;;;;;;;4.04;96.00;93966.03;5081293;28;20208;-82
2021/11/03 04:31:59;;;;;;;5.67;3.50;;;;;;;3.99;95.55;93965.69;5087276;28;20539;-82
2021/11/03 04:34:25;;;;;;;5.47;3.90;;;;;;;4.00;96.04;93969.88;5091680;28;20178;-82
2021/11/03 04:36:50;;;;;;;3.87;3.57;;;;;;;4.03;95.71;93969.56;5073814;28;20186;-81
2021/11/03 04:39:16;;;;;;;3.67;3.23;;;;;;;4.10;95.65;93962.88;5084353;28;20215;-81
2021/11/03 04:41:41;;;;;;;5.13;3.80;;;;;;;4.03;95.78;93956.72;5070201;28;20177;-81
2021/11/03 04:44:06;;;;;;;5.20;4.30;;;;;;;4.05;95.97;93948.84;5054304;28;20183;-81
2021/11/03 04:46:32;;;;;;;3.77;3.47;;;;;;;4.07;96.09;93945.22;5071282;28;20549;-81
2021/11/03 04:48:58;;;;;;;5.93;3.60;;;;;;;4.04;96.15;93950.63;5054178;28;20202;-81
2021/11/03 04:51:24;;;;;;;7.83;4.00;;;;;;;4.06;95.91;93953.84;5071830;28;20185;-81
2021/11/03 04:53:49;;;;;;;4.53;3.53;;;;;;;4.09;95.85;93940.72;5090353;28;20573;-81
2021/11/03 04:56:19;;;;;;;5.60;4.30;;;;;;;4.06;95.73;93929.91;5074550;28;20192;-81
2021/11/03 04:58:46;;;;;;;5.83;4.13;;;;;;;4.06;95.96;93937.63;5074882;28;20873;-82
2021/11/03 05:01:11;;;;;;;6.03;3.80;;;;;;;4.06;95.68;93935.88;5062886;28;20184;-82
2021/11/03 05:03:36;;;;;;;4.90;4.10;;;;;;;3.97;96.67;93927.28;5072546;28;20225;-81
2021/11/03 05:06:02;;;;;;;4.80;4.17;;;;;;;4.00;96.59;93926.19;5073809;28;20187;-81
2021/11/03 05:08:28;;;;;;;5.40;3.97;;;;;;;3.97;96.73;93926.47;5091068;28;20576;-81
2021/11/03 05:10:53;;;;;;;5.37;4.37;;;;;;;4.05;96.75;93926.53;5085155;28;20181;-80
2021/11/03 05:13:19;;;;;;;5.93;4.30;;;;;;;3.98;96.40;93921.22;5065501;28;20239;-81
2021/11/03 05:15:44;;;;;;;5.90;4.10;;;;;;;4.09;96.10;93909.91;5072246;28;20639;-81
2021/11/03 05:18:09;;;;;;;4.57;4.17;;;;;;;4.09;96.52;93909.09;5092203;28;20678;-81
2021/11/03 05:20:35;;;;;;;5.00;4.17;;;;;;;4.01;96.57;93909.81;5074079;28;20216;-81
2021/11/03 05:23:02;;;;;;;5.50;4.43;;;;;;;4.06;96.68;93899.09;5079504;28;20207;-80
2021/11/03 05:25:27;;;;;;;6.10;4.40;;;;;;;4.07;96.30;93909.25;5089136;28;20282;-81
2021/11/03 05:27:54;;;;;;;5.17;4.30;;;;;;;4.11;96.18;93897.72;5090760;28;20870;-81
2021/11/03 05:30:22;;;;;;;4.40;4.00;;;;;;;4.12;96.60;93901.88;5070143;28;20288;-81
2021/11/03 05:32:48;;;;;;;6.27;4.50;;;;;;;4.11;96.32;93897.72;5063517;28;20627;-81
2021/11/03 05:35:14;;;;;;;6.20;4.80;;;;;;;4.11;96.57;93892.56;5078013;28;20200;-82
2021/11/03 05:37:39;;;;;;;5.37;4.63;;;;;;;4.11;96.42;93892.56;5061455;28;20234;-81
2021/11/03 05:40:07;;;;;;;6.23;4.43;;;;;;;4.09;96.74;93884.22;5070906;28;20197;-81
2021/11/03 05:42:32;;;;;;;5.20;4.53;;;;;;;4.10;96.37;93875.53;5071110;28;20707;-81
2021/11/03 05:44:58;;;;;;;5.20;4.20;;;;;;;4.11;96.54;93877.16;5065031;28;20317;-81
2021/11/03 05:47:26;;;;;;;6.20;4.03;;;;;;;4.09;96.36;93871.38;5067295;28;20189;-81
2021/11/03 05:49:52;;;;;;;7.57;4.57;;;;;;;4.13;96.95;93872.66;5082877;28;20196;-81
2021/11/03 05:52:17;;;;;;;5.37;4.90;;;;;;;4.12;96.74;93870.25;5067646;28;20191;-80
2021/11/03 05:54:43;;;;;;;6.23;4.93;;;;;;;4.14;96.16;93876.03;5081156;28;20561;-82
2021/11/03 05:57:18;;;;;;;5.63;4.87;;;;;;;4.10;96.49;93879.88;5065491;28;20188;-82
2021/11/03 05:59:43;;;;;;;7.43;5.23;;;;;;;4.07;96.68;93872.47;5078086;28;20204;-82
2021/11/03 06:02:09;;;;;;;6.43;5.07;;;;;;;4.05;96.84;93872.59;5059274;28;20257;-83
2021/11/03 06:04:34;;;;;;;8.53;6.40;;;;;;;4.04;97.03;93873.56;5071691;28;20188;-82
2021/11/03 06:07:00;;;;;;;9.40;7.70;;;;;;;4.07;96.87;93877.63;5076044;28;20270;-82
2021/11/03 06:09:25;;;;;;;7.60;6.77;;;;;;;4.00;97.29;93869.69;5072470;28;20614;-82
2021/11/03 06:11:50;;;;;;;8.97;6.43;;;;;;;4.02;97.19;93867.78;5088189;28;20180;-85
2021/11/03 06:14:16;;;;;;;7.27;6.30;;;;;;;4.04;97.07;93853.00;5071767;28;20218;-85
2021/11/03 06:16:42;;;;;;;6.73;5.57;;;;;;;4.13;97.28;93846.97;5061009;28;20203;-82
2021/11/03 06:19:07;;;;;;;7.80;5.77;;;;;;;4.11;96.91;93850.66;5074903;28;20212;-82
2021/11/03 06:21:33;;;;;;;6.57;5.57;;;;;;;4.11;97.09;93866.88;5057702;28;20563;-80
2021/11/03 06:23:58;;;;;;;6.80;6.10;;;;;;;4.06;97.09;93868.28;5065888;28;20192;-79
2021/11/03 06:26:24;;;;;;;6.10;5.50;;;;;;;4.08;97.66;93872.31;5079798;28;20209;-79
2021/11/03 06:28:50;;;;;;;7.13;5.47;;;;;;;4.03;97.53;93884.78;5083465;28;20207;-78
2021/11/03 06:31:15;;;;;;;8.87;5.57;;;;;;;4.09;97.58;93876.50;5059376;28;20189;-78
2021/11/03 06:33:41;;;;;;;9.03;6.60;;;;;;;4.14;97.57;93876.84;5073968;28;20215;-79
2021/11/03 06:36:07;;;;;;;6.73;5.80;;;;;;;4.14;97.21;93860.63;5062379;28;20200;-78
2021/11/03 06:38:34;;;;;;;5.63;4.23;;;;;;;4.24;97.02;93848.50;5063798;28;20185;-78
2021/11/03 06:41:01;;;;;;;4.97;4.40;;;;;;;4.30;96.82;93849.66;5076108;28;20260;-81
2021/11/03 06:43:27;;;;;;;6.23;4.57;;;;;;;4.25;96.71;93868.91;5062410;28;20186;-82
2021/11/03 06:45:53;;;;;;;4.87;4.27;;;;;;;4.30;96.37;93877.94;5066488;28;20173;-82
2021/11/03 06:48:18;;;;;;;5.83;4.43;;;;;;;4.37;96.50;93882.31;5075304;28;20206;-82
2021/11/03 06:50:45;;;;;;;9.27;5.67;;;;;;;4.44;95.89;93882.53;5084212;28;20283;-81
2021/11/03 06:53:12;;;;;;;4.13;3.40;;;;;;;4.43;95.27;93878.34;5081015;28;20246;-82
2021/11/03 06:55:40;;;;;;;5.70;3.90;;;;;;;4.42;95.62;93866.47;5083599;28;20184;-82
2021/11/03 06:58:05;;;;;;;5.43;4.47;;;;;;;4.51;94.88;93868.13;5068131;28;20180;-82
2021/11/03 07:00:34;;;;;;;6.50;3.73;;;;;;;4.58;94.49;93873.44;5081686;28;20265;-83
2021/11/03 07:03:00;;;;;;;3.70;3.40;;;;;;;4.60;93.79;93877.50;5070087;28;20169;-83
2021/11/03 07:05:27;;;;;;;3.80;3.13;;;;;;;4.63;93.87;93869.47;5068757;28;20272;-83
2021/11/03 07:07:52;;;;;;;3.03;2.60;;;;;;;4.67;93.71;93869.97;5067009;28;20177;-80
2021/11/03 07:10:20;;;;;;;2.60;2.40;;;;;;;4.77;93.32;93874.06;5087749;28;20259;-81
2021/11/03 07:12:46;;;;;;;6.03;2.57;;;;;;;4.76;93.52;93871.63;5083547;28;20186;-81
2021/11/03 07:15:11;;;;;;;4.57;2.60;;;;;;;4.82;92.11;93876.97;5081149;28;20203;-82
2021/11/03 07:17:36;;;;;;;3.83;2.60;;;;;;;4.82;92.20;93871.81;5077343;28;20176;-82
2021/11/03 07:20:02;;;;;;;3.03;2.80;;;;;;;4.88;91.73;93859.31;5076701;28;20217;-82
2021/11/03 07:22:27;;;;;;;3.00;2.70;;;;;;;4.89;91.71;93864.28;5093236;28;20176;-82
2021/11/03 07:24:54;;;;;;;4.30;3.47;;;;;;;4.82;91.95;93866.66;5081711;28;20203;-81
2021/11/03 07:27:20;;;;;;;4.57;3.93;;;;;;;4.86;92.19;93866.34;5064963;28;20207;-81
2021/11/03 07:29:45;;;;;;;5.93;3.07;;;;;;;4.93;91.73;93877.66;5060964;28;20284;-81
2021/11/03 07:32:10;;;;;;;3.67;2.77;;;;;;;4.93;91.64;93877.66;5083959;28;20208;-82
2021/11/03 07:34:36;;;;;;;6.90;5.80;;;;;;;4.83;92.08;93878.56;5086167;28;20224;-81
2021/11/03 07:37:01;;;;;;;7.20;5.03;;;;;;;4.89;92.08;93868.63;5059281;28;20748;-82
2021/11/03 07:39:26;;;;;;;2.70;2.50;;;;;;;5.05;91.50;93863.56;5071737;28;20338;-82
2021/11/03 07:41:52;;;;;;;2.73;2.47;;;;;;;5.06;91.21;93868.56;5063501;28;20531;-82
2021/11/03 07:44:17;;;;;;;24.30;12.37;;;;;;;5.00;91.63;93883.78;5073005;28;20184;-82
2021/11/03 07:46:43;;;;;;;27.70;13.70;;;;;;;4.94;92.01;93884.41;5057623;28;20200;-82
2021/11/03 07:49:08;;;;;;;25.87;14.23;;;;;;;4.92;91.73;93887.13;5057625;28;20207;-81
2021/11/03 07:51:34;;;;;;;25.27;12.60;;;;;;;4.92;91.09;93887.13;5074993;28;20318;-81
2021/11/03 07:53:59;;;;;;;17.73;9.37;;;;;;;5.12;90.54;93869.69;5090712;28;20204;-82
2021/11/03 07:56:26;;;;;;;4.33;2.47;;;;;;;5.13;89.51;93876.47;5074636;28;20346;-82
2021/11/03 07:58:53;;;;;;;8.67;5.10;;;;;;;5.19;89.41;93898.19;5082415;28;20204;-83
2021/11/03 08:01:18;;;;;;;23.43;12.20;;;;;;;5.16;89.30;93898.50;5074905;28;20184;-81
2021/11/03 08:03:44;;;;;;;24.90;12.90;;;;;;;5.25;89.68;93890.66;5086261;28;20718;-82
2021/11/03 08:06:10;;;;;;;7.30;5.10;;;;;;;5.20;89.25;93885.16;5081084;28;20208;-82
2021/11/03 08:08:40;;;;;;;5.03;3.53;;;;;;;5.17;89.00;93879.53;5095345;28;20176;-82
2021/11/03 08:11:06;;;;;;;3.23;2.97;;;;;;;5.16;88.41;93893.34;5069968;28;20603;-84
2021/11/03 08:13:31;;;;;;;4.50;3.87;;;;;;;5.15;88.53;93887.41;5085537;28;20201;-80
2021/11/03 08:15:59;;;;;;;3.07;2.73;;;;;;;5.15;88.36;93902.84;5072548;28;20222;-81
2021/11/03 08:18:26;;;;;;;3.50;3.20;;;;;;;5.17;88.10;93907.81;5060418;28;20249;-82
2021/11/03 08:20:52;;;;;;;6.50;4.33;;;;;;;5.14;88.59;93908.94;5082838;28;20716;-82
2021/11/03 08:23:17;;;;;;;5.57;4.37;;;;;;;5.14;88.38;93900.44;5084107;28;20185;-82
2021/11/03 08:25:43;;;;;;;3.87;3.40;;;;;;;5.29;88.12;93902.22;5088753;28;20177;-82
2021/11/03 08:28:09;;;;;;;3.93;3.47;;;;;;;5.29;87.70;93899.66;5073049;28;20188;-83
2021/11/03 08:30:38;;;;;;;2.60;2.40;;;;;;;5.34;87.38;93900.00;5095636;28;20748;-83
2021/11/03 08:33:08;;;;;;;4.33;3.93;;;;;;;5.40;87.03;93903.75;5071635;28;20279;-82
2021/11/03 08:35:35;;;;;;;2.60;2.40;;;;;;;5.44;86.69;93893.91;5066322;28;20242;-82
2021/11/03 08:38:03;;;;;;;2.33;2.13;;;;;;;5.48;86.75;93896.03;5075161;28;20173;-82
2021/11/03 08:40:33;;;;;;;3.10;2.13;;;;;;;5.56;86.02;93892.66;5078525;28;20188;-83
2021/11/03 08:43:00;;;;;;;2.60;1.90;;;;;;;5.63;85.43;93884.16;5091775;28;20536;-82
2021/11/03 08:45:29;;;;;;;3.97;1.80;;;;;;;5.68;84.84;93878.53;5085896;28;20554;-82
2021/11/03 08:47:55;;;;;;;2.30;2.10;;;;;;;5.76;84.28;93881.13;5077978;28;20176;-80
2021/11/03 08:50:25;;;;;;;2.20;1.70;;;;;;;5.78;83.67;93897.22;5088953;28;20209;-81
2021/11/03 08:52:52;;;;;;;2.50;2.30;;;;;;;5.84;83.50;93894.03;5087588;28;20197;-83
2021/11/03 08:55:18;;;;;;;2.20;2.00;;;;;;;5.83;82.81;93892.41;5066770;28;20210;-82
2021/11/03 08:57:52;;;;;;;7.63;5.53;;;;;;;5.92;82.77;93896.63;5059736;28;20188;-82
2021/11/03 09:00:22;;;;;;;7.00;4.93;;;;;;;5.88;82.46;93897.88;5087872;28;20195;-81
2021/11/03 09:02:55;;;;;;;7.70;7.10;;;;;;;5.90;82.70;93898.53;5099956;28;20878;-82
2021/11/03 09:05:22;;;;;;;4.27;3.87;;;;;;;5.92;82.99;93903.56;5076429;28;20206;-83
2021/11/03 09:07:47;;;;;;;5.23;4.83;;;;;;;5.92;82.88;93901.78;5077285;28;20177;-82
2021/11/03 09:10:14;;;;;;;4.37;3.93;;;;;;;5.97;82.56;93896.94;5064806;28;20231;-82
2021/11/03 09:12:40;;;;;;;2.47;2.27;;;;;;;6.01;81.69;93894.88;5092860;28;20200;-84
2021/11/03 09:15:07;;;;;;;3.20;2.90;;;;;;;6.05;81.66;93900.50;5068213;28;20189;-85
2021/11/03 09:17:32;;;;;;;3.80;2.80;;;;;;;6.02;81.57;93887.94;5067590;28;20184;-84
2021/11/03 09:19:58;;;;;;;7.53;6.93;;;;;;;6.06;81.61;93886.66;5077488;28;20208;-84
2021/11/03 09:22:23;;;;;;;5.90;5.33;;;;;;;6.17;81.08;93883.75;5077451;28;20260;-84
2021/11/03 09:24:49;;;;;;;3.97;3.60;;;;;;;6.32;81.21;93881.34;5069493;28;20181;-83
2021/11/03 09:27:15;;;;;;;12.10;10.17;;;;;;;6.24;81.22;93869.25;5072131;28;20181;-81
2021/11/03 09:29:45;;;;;;;17.37;14.67;;;;;;;6.35;81.42;93881.00;5077375;28;20550;-83
2021/11/03 09:32:14;;;;;;;22.80;17.27;;;;;;;6.30;80.55;93878.13;5068370;28;20247;-82
2021/11/03 09:34:45;;;;;;;19.73;15.03;;;;;;;6.26;81.18;93887.94;5084786;28;20190;-83
2021/11/03 09:37:13;;;;;;;39.10;30.47;;;;;;;6.42;81.33;93881.97;5080243;28;20222;-82
2021/11/03 09:39:39;;;;;;;31.07;24.67;;;;;;;6.59;80.97;93880.97;5063999;28;20258;-82
2021/11/03 09:42:05;;;;;;;19.03;15.97;;;;;;;6.81;80.52;93879.50;5078940;28;20769;-82
2021/11/03 09:44:32;;;;;;;20.73;18.63;;;;;;;6.85;78.55;93891.09;5069497;28;20173;-84
2021/11/03 09:47:00;;;;;;;11.00;10.20;;;;;;;6.87;77.80;93896.06;5058544;28;20199;-82
2021/11/03 09:49:39;;;;;;;6.87;6.37;;;;;;;6.84;77.23;93904.97;5080956;28;20266;-82
2021/11/03 09:52:26;;;;;;;3.27;2.93;;;;;;;6.78;78.06;93905.59;5062736;28;20185;-82
2021/11/03 09:55:14;;;;;;;4.10;2.90;;;;;;;6.95;77.65;93902.03;5075093;28;20185;-82
2021/11/03 09:57:47;;;;;;;4.93;2.20;;;;;;;7.12;77.46;93891.66;5081615;28;20212;-82
2021/11/03 10:00:24;;;;;;;4.87;2.30;;;;;;;7.36;77.12;93900.13;5077933;28;20216;-82
2021/11/03 10:03:18;;;;;;;3.00;1.87;;;;;;;7.45;77.39;93910.41;5092300;28;20176;-82
2021/11/03 10:05:48;;;;;;;1.97;1.23;;;;;;;7.35;77.10;93905.44;5079192;28;20644;-83
2021/11/03 10:08:19;;;;;;;15.33;12.43;;;;;;;7.20;77.04;93907.13;5094569;28;20172;-84
2021/11/03 10:11:00;;;;;;;3.53;3.23;;;;;;;7.33;77.58;93913.38;5086941;28;20409;-83
2021/11/03 10:13:39;;;;;;;2.17;2.07;;;;;;;7.30;77.04;93913.69;5068561;28;20265;-83
2021/11/03 10:16:11;;;;;;;1.70;1.03;;;;;;;7.48;77.05;93915.22;5064125;28;20188;-83
2021/11/03 10:18:55;;;;;;;3.63;0.90;;;;;;;7.46;77.58;93915.41;5095853;28;20644;-82
2021/11/03 10:21:30;;;;;;;2.90;0.80;;;;;;;7.46;76.50;93920.56;5094437;28;20184;-83
2021/11/03 10:24:23;;;;;;;1.57;0.90;;;;;;;7.39;75.19;93922.22;5085536;28;20633;-81
2021/11/03 10:26:58;;;;;;;1.27;0.83;;;;;;;7.44;75.07;93914.78;5078128;28;20177;-82
2021/11/03 10:29:26;;;;;;;1.10;0.90;;;;;;;7.48;75.12;93917.81;5082666;28;20207;-81
2021/11/03 10:32:01;;;;;;;0.80;0.80;;;;;;;7.43;74.35;93920.91;5074608;28;20195;-81
2021/11/03 10:34:40;;;;;;;0.90;0.73;;;;;;;7.44;74.18;93924.31;5077380;28;20204;-82
2021/11/03 10:37:15;;;;;;;2.30;0.90;;;;;;;7.45;73.76;93918.16;5079759;28;20181;-83
2021/11/03 10:39:48;;;;;;;1.07;0.97;;;;;;;7.64;74.32;93928.88;5079326;28;20695;-82
2021/11/03 10:42:34;;;;;;;3.03;2.80;;;;;;;7.69;74.08;93925.00;5078008;28;20659;-81
2021/11/03 10:45:11;;;;;;;5.03;4.63;;;;;;;7.73;74.26;93923.69;5080915;28;20263;-82
2021/11/03 10:47:37;;;;;;;2.60;2.40;;;;;;;7.74;74.65;93931.25;5085837;28;20265;-81
2021/11/03 10:50:23;;;;;;;1.00;1.00;;;;;;;7.63;74.47;93926.47;5086101;28;20571;-81
2021/11/03 10:53:12;;;;;;;1.20;1.10;;;;;;;7.74;74.48;93935.63;5050226;28;20205;-82
2021/11/03 10:55:40;;;;;;;1.00;0.90;;;;;;;7.90;74.62;93935.53;5077753;28;20569;-82
2021/11/03 10:58:12;;;;;;;2.33;1.93;;;;;;;8.00;74.30;93945.66;5058090;28;20186;-79
2021/11/03 11:00:40;;;;;;;2.23;1.60;;;;;;;8.05;73.73;93949.34;5086866;28;20224;-81
2021/11/03 11:03:13;;;;;;;2.27;1.40;;;;;;;8.12;75.22;93942.50;5084589;28;20184;-82
2021/11/03 11:05:48;;;;;;;2.23;1.20;;;;;;;8.00;77.40;93936.13;5085487;28;20185;-85
2021/11/03 11:08:25;;;;;;;3.07;1.30;;;;;;;8.10;77.30;93934.09;5092693;28;20176;-80
2021/11/03 11:10:58;;;;;;;3.10;2.10;;;;;;;8.00;77.89;93937.91;5071902;28;20169;-80
2021/11/03 11:13:31;;;;;;;3.77;2.50;;;;;;;7.85;78.57;93942.97;5070373;28;20246;-82
2021/11/03 11:16:08;;;;;;;3.50;2.20;;;;;;;7.83;79.02;93942.34;5080688;28;20174;-86
2021/11/03 11:18:35;;;;;;;2.17;1.60;;;;;;;7.72;79.25;93940.97;5064041;28;20205;-85
2021/11/03 11:21:04;;;;;;;2.37;1.40;;;;;;;7.67;79.24;93945.81;5082741;28;20188;-85
2021/11/03 11:23:37;;;;;;;2.60;1.40;;;;;;;7.55;79.25;93953.13;5068107;28;20583;-86
2021/11/03 11:26:12;;;;;;;1.90;1.50;;;;;;;7.61;79.68;93952.47;5063795;28;20292;-84
2021/11/03 11:28:56;;;;;;;2.70;1.50;;;;;;;7.45;80.90;93955.13;5072359;28;20180;-81
2021/11/03 11:31:35;;;;;;;2.60;2.00;;;;;;;7.48;81.27;93951.38;5064498;28;20172;-81
2021/11/03 11:34:16;;;;;;;2.77;2.03;;;;;;;7.46;81.33;93945.59;5071737;28;20205;-82
2021/11/03 11:36:46;;;;;;;2.67;2.00;;;;;;;7.36;82.11;93943.22;5090342;28;20655;-81
2021/11/03 11:39:21;;;;;;;3.47;2.20;;;;;;;7.29;82.04;93948.22;5064079;28;20197;-80
2021/11/03 11:42:42;;;;;;;3.60;1.80;;;;;;;7.23;82.60;93948.09;5073791;28;20191;-81
2021/11/03 11:45:20;;;;;;;2.87;2.10;;;;;;;7.09;83.86;93944.44;5057049;28;20204;-81